createdAt,value
2023-02-16T00:00:29.911Z,42.72
2023-02-16T00:02:35.436Z,43.35
2023-02-16T00:04:40.440Z,46.70
2023-02-16T00:06:45.923Z,43.63
2023-02-16T00:08:53.106Z,45.58
2023-02-16T00:11:10.424Z,42.78
2023-02-16T00:13:40.403Z,44.13
2023-02-16T00:15:46.181Z,43.92
2023-02-16T00:17:51.138Z,45.75
2023-02-16T00:19:56.171Z,43.60
2023-02-16T00:22:02.990Z,42.85
2023-02-16T00:24:08.481Z,44.03
2023-02-16T00:26:18.646Z,47.33
2023-02-16T00:28:26.020Z,44.72
2023-02-16T00:30:31.934Z,47.55
2023-02-16T00:32:36.800Z,45.38
2023-02-16T00:34:46.856Z,43.67
2023-02-16T00:36:52.195Z,46.63
2023-02-16T00:38:58.281Z,43.38
2023-02-16T00:41:03.757Z,42.75
2023-02-16T00:43:09.905Z,42.67
2023-02-16T00:45:24.828Z,43.08
2023-02-16T00:47:35.177Z,43.50
2023-02-16T00:49:40.106Z,42.10
2023-02-16T00:51:45.804Z,41.50
2023-02-16T00:53:52.770Z,43.47
2023-02-16T00:55:58.487Z,44.78
2023-02-16T00:58:10.072Z,45.20
2023-02-16T01:00:23.518Z,42.97
2023-02-16T01:02:32.241Z,41.72
2023-02-16T01:04:37.370Z,38.95
2023-02-16T01:06:54.592Z,41.75
2023-02-16T01:09:22.587Z,42.47
2023-02-16T01:11:28.102Z,41.65
2023-02-16T01:13:36.508Z,40.63
2023-02-16T01:15:42.201Z,39.83
2023-02-16T01:17:49.759Z,38.78
2023-02-16T01:19:54.739Z,37.38
2023-02-16T01:22:02.576Z,38.75
2023-02-16T01:24:07.583Z,39.28
2023-02-16T01:26:17.762Z,38.03
2023-02-16T01:28:25.735Z,40.83
2023-02-16T01:30:31.392Z,39.47
2023-02-16T01:32:36.612Z,37.95
2023-02-16T01:34:44.320Z,39.53
2023-02-16T01:36:51.042Z,37.08
2023-02-16T01:38:55.987Z,38.88
2023-02-16T01:41:22.642Z,39.30
2023-02-16T01:43:32.471Z,40.03
2023-02-16T01:45:44.712Z,40.05
2023-02-16T01:47:55.489Z,38.30
2023-02-16T01:50:04.721Z,37.20
2023-02-16T01:52:21.531Z,37.38
2023-02-16T01:54:37.817Z,36.70
2023-02-16T01:56:53.826Z,36.13
2023-02-16T01:59:03.672Z,34.35
2023-02-16T02:01:39.551Z,35.33
2023-02-16T02:03:58.406Z,37.13
2023-02-16T02:06:07.176Z,36.50
2023-02-16T02:08:28.960Z,35.80
2023-02-16T02:10:43.189Z,35.58
2023-02-16T02:12:54.800Z,34.15
2023-02-16T02:15:00.384Z,34.58
2023-02-16T02:17:09.417Z,37.92
2023-02-16T02:19:14.864Z,35.95
2023-02-16T02:21:54.278Z,34.53
2023-02-16T02:24:23.132Z,34.28
2023-02-16T02:26:59.061Z,33.75
2023-02-16T02:29:19.227Z,35.53
2023-02-16T02:31:39.886Z,33.70
2023-02-16T02:33:57.704Z,31.55
2023-02-16T02:36:20.296Z,34.40
2023-02-16T02:38:30.863Z,34.80
2023-02-16T02:40:50.755Z,33.20
2023-02-16T02:43:07.559Z,33.65
2023-02-16T02:45:21.418Z,32.65
2023-02-16T02:47:26.618Z,35.03
2023-02-16T02:49:35.047Z,32.97
2023-02-16T02:51:40.588Z,35.17
2023-02-16T02:54:13.989Z,31.35
2023-02-16T02:56:47.102Z,33.13
2023-02-16T02:59:12.879Z,34.03
2023-02-16T03:01:21.763Z,32.83
2023-02-16T03:03:32.126Z,34.95
2023-02-16T03:05:47.096Z,31.50
2023-02-16T03:07:57.624Z,31.70
2023-02-16T03:10:23.131Z,30.90
2023-02-16T03:12:40.554Z,32.47
2023-02-16T03:14:52.964Z,30.90
2023-02-16T03:17:13.037Z,34.17
2023-02-16T03:19:35.131Z,34.17
2023-02-16T03:21:52.971Z,30.98
2023-02-16T03:24:11.474Z,32.22
2023-02-16T03:26:30.104Z,31.17
2023-02-16T03:28:50.696Z,32.45
2023-02-16T03:30:59.544Z,32.42
2023-02-16T03:33:07.653Z,32.75
2023-02-16T03:35:12.952Z,31.73
2023-02-16T03:37:18.648Z,32.92
2023-02-16T03:39:24.006Z,31.45
2023-02-16T03:41:29.877Z,32.80
2023-02-16T03:43:38.041Z,32.45
2023-02-16T03:45:46.588Z,30.98
2023-02-16T03:47:53.989Z,33.78
2023-02-16T03:50:01.817Z,30.38
2023-02-16T03:52:07.640Z,33.10
2023-02-16T03:54:12.565Z,31.50
2023-02-16T03:56:17.333Z,30.83
2023-02-16T03:58:26.871Z,33.42
2023-02-16T04:00:31.821Z,31.45
2023-02-16T04:02:37.370Z,31.58
2023-02-16T04:04:45.105Z,30.38
2023-02-16T04:06:50.086Z,31.42
2023-02-16T04:08:55.455Z,32.45
2023-02-16T04:11:00.536Z,31.13
2023-02-16T04:13:02.923Z,31.42
2023-02-16T04:15:10.674Z,32.53
2023-02-16T04:17:16.021Z,31.63
2023-02-16T04:19:21.339Z,31.70
2023-02-16T04:21:28.806Z,31.92
2023-02-16T04:23:33.614Z,30.85
2023-02-16T04:25:42.423Z,32.40
2023-02-16T04:27:48.271Z,31.10
2023-02-16T04:29:53.227Z,32.50
2023-02-16T04:31:58.390Z,34.38
2023-02-16T04:34:03.570Z,31.83
2023-02-16T04:36:12.500Z,31.90
2023-02-16T04:38:20.193Z,32.50
2023-02-16T04:40:25.406Z,30.73
2023-02-16T04:42:30.351Z,33.65
2023-02-16T04:44:36.193Z,31.63
2023-02-16T04:46:41.991Z,30.63
2023-02-16T04:48:46.801Z,31.45
2023-02-16T04:50:51.721Z,32.00
2023-02-16T04:52:56.846Z,31.55
2023-02-16T04:55:05.842Z,34.00
2023-02-16T04:57:11.306Z,33.28
2023-02-16T04:59:16.740Z,31.38
2023-02-16T05:01:23.324Z,33.10
2023-02-16T05:03:28.560Z,32.20
2023-02-16T05:05:38.250Z,33.42
2023-02-16T05:07:43.411Z,33.35
2023-02-16T05:09:48.239Z,33.85
2023-02-16T05:12:08.040Z,34.55
2023-02-16T05:14:35.567Z,31.70
2023-02-16T05:16:40.825Z,35.88
2023-02-16T05:18:47.914Z,33.40
2023-02-16T05:21:05.552Z,32.38
2023-02-16T05:23:10.474Z,34.50
2023-02-16T05:25:18.165Z,34.08
2023-02-16T05:27:28.602Z,33.65
2023-02-16T05:29:33.855Z,33.03
2023-02-16T05:31:39.616Z,34.05
2023-02-16T05:33:45.992Z,32.13
2023-02-16T05:35:51.802Z,33.80
2023-02-16T05:37:56.931Z,33.58
2023-02-16T05:40:05.084Z,32.25
2023-02-16T05:42:10.643Z,33.30
2023-02-16T05:44:20.990Z,33.47
2023-02-16T05:46:26.826Z,33.83
2023-02-16T05:48:31.937Z,33.28
2023-02-16T05:50:36.617Z,34.78
2023-02-16T05:52:42.404Z,33.63
2023-02-16T05:54:47.102Z,33.38
2023-02-16T05:56:53.718Z,36.25
2023-02-16T05:58:58.856Z,35.00
2023-02-16T06:01:06.877Z,36.25
2023-02-16T06:03:11.742Z,34.08
2023-02-16T06:05:16.749Z,35.90
2023-02-16T06:07:21.426Z,37.08
2023-02-16T06:09:26.352Z,34.13
2023-02-16T06:11:40.862Z,34.40
2023-02-16T06:13:46.577Z,35.95
2023-02-16T06:15:54.718Z,36.75
2023-02-16T06:18:03.592Z,32.70
2023-02-16T06:20:10.492Z,33.45
2023-02-16T06:22:15.319Z,32.90
2023-02-16T06:24:20.135Z,35.97
2023-02-16T06:26:25.055Z,33.55
2023-02-16T06:28:29.802Z,34.85
2023-02-16T06:30:38.194Z,36.40
2023-02-16T06:32:43.084Z,36.55
2023-02-16T06:34:52.543Z,34.50
2023-02-16T06:36:57.742Z,33.38
2023-02-16T06:39:02.744Z,34.70
2023-02-16T06:41:08.054Z,35.85
2023-02-16T06:43:13.295Z,35.10
2023-02-16T06:45:19.295Z,34.67
2023-02-16T06:47:24.402Z,35.80
2023-02-16T06:49:29.649Z,33.80
2023-02-16T06:51:37.337Z,36.85
2023-02-16T06:53:42.688Z,37.25
2023-02-16T06:55:49.907Z,35.67
2023-02-16T06:57:54.677Z,34.53
2023-02-16T06:59:59.761Z,34.08
2023-02-16T07:02:04.873Z,35.60
2023-02-16T07:04:11.027Z,34.67
2023-02-16T07:06:16.267Z,36.08
2023-02-16T07:08:23.837Z,37.08
2023-02-16T07:10:37.431Z,33.58
2023-02-16T07:12:52.645Z,32.10
2023-02-16T07:14:57.777Z,35.47
2023-02-16T07:17:06.807Z,34.47
2023-02-16T07:19:11.838Z,35.90
2023-02-16T07:21:18.492Z,36.60
2023-02-16T07:23:25.980Z,33.35
2023-02-16T07:25:31.337Z,34.22
2023-02-16T07:27:38.594Z,35.72
2023-02-16T07:29:45.302Z,33.63
2023-02-16T07:31:53.710Z,35.28
2023-02-16T07:33:58.890Z,34.88
2023-02-16T07:36:03.784Z,36.13
2023-02-16T07:38:12.881Z,35.25
2023-02-16T07:40:21.101Z,35.30
2023-02-16T07:42:25.963Z,33.70
2023-02-16T07:44:30.860Z,36.30
2023-02-16T07:46:38.089Z,36.45
2023-02-16T07:48:42.923Z,35.75
2023-02-16T07:50:49.136Z,33.83
2023-02-16T07:52:54.172Z,36.70
2023-02-16T07:54:59.203Z,34.45
2023-02-16T07:57:07.434Z,34.30
2023-02-16T07:59:12.364Z,35.30
2023-02-16T08:01:17.800Z,34.05
2023-02-16T08:03:23.066Z,34.47
2023-02-16T08:05:29.048Z,35.42
2023-02-16T08:07:33.966Z,37.83
2023-02-16T08:09:42.698Z,36.25
2023-02-16T08:11:47.860Z,36.00
2023-02-16T08:13:56.037Z,40.60
2023-02-16T08:16:01.682Z,36.60
2023-02-16T08:18:06.818Z,37.38
2023-02-16T08:20:13.210Z,36.83
2023-02-16T08:22:18.201Z,37.15
2023-02-16T08:24:25.137Z,37.63
2023-02-16T08:26:32.317Z,35.13
2023-02-16T08:28:38.635Z,38.35
2023-02-16T08:30:53.382Z,34.63
2023-02-16T08:33:01.204Z,36.20
2023-02-16T08:35:07.108Z,40.60
2023-02-16T08:37:18.021Z,36.90
2023-02-16T08:39:24.718Z,39.38
2023-02-16T08:41:42.120Z,39.75
2023-02-16T08:43:48.079Z,43.15
2023-02-16T08:45:56.536Z,39.30
2023-02-16T08:48:02.697Z,36.53
2023-02-16T08:50:11.667Z,37.17
2023-02-16T08:52:17.426Z,37.90
2023-02-16T08:54:25.747Z,40.60
2023-02-16T08:56:33.049Z,40.47
2023-02-16T08:58:37.961Z,38.85
2023-02-16T09:00:43.655Z,39.35
2023-02-16T09:02:53.170Z,40.65
2023-02-16T09:05:01.287Z,43.78
2023-02-16T09:07:07.542Z,40.70
2023-02-16T09:09:13.304Z,40.08
2023-02-16T09:11:21.903Z,40.45
2023-02-16T09:13:26.815Z,40.28
2023-02-16T09:15:31.721Z,41.83
2023-02-16T09:17:36.557Z,38.53
2023-02-16T09:19:47.048Z,42.15
2023-02-16T09:21:58.920Z,41.47
2023-02-16T09:24:07.704Z,39.03
2023-02-16T09:26:12.791Z,41.70
2023-02-16T09:28:17.928Z,39.08
2023-02-16T09:30:22.971Z,41.20
2023-02-16T09:32:31.530Z,38.95
2023-02-16T09:34:36.505Z,39.10
2023-02-16T09:36:43.933Z,40.83
2023-02-16T09:38:50.717Z,40.55
2023-02-16T09:41:03.587Z,41.15
2023-02-16T09:43:17.495Z,40.35
2023-02-16T09:45:25.088Z,42.83
2023-02-16T09:47:33.168Z,40.70
2023-02-16T09:49:42.490Z,41.60
2023-02-16T09:51:53.007Z,41.10
2023-02-16T09:54:06.891Z,42.78
2023-02-16T09:56:22.906Z,40.58
2023-02-16T09:58:32.908Z,41.15
2023-02-16T10:00:52.446Z,41.28
2023-02-16T10:03:04.913Z,42.20
2023-02-16T10:05:23.392Z,42.00
2023-02-16T10:07:42.635Z,38.47
2023-02-16T10:09:53.745Z,42.15
2023-02-16T10:12:06.745Z,40.25
2023-02-16T10:16:33.427Z,40.17
2023-02-16T10:18:43.227Z,40.53
2023-02-16T10:20:52.570Z,41.65
2023-02-16T10:23:08.241Z,38.88
2023-02-16T10:25:20.453Z,40.28
2023-02-16T10:27:27.012Z,40.27
2023-02-16T10:29:31.875Z,41.53
2023-02-16T10:31:43.563Z,39.03
2023-02-16T10:34:07.136Z,40.20
2023-02-16T10:36:21.869Z,41.20
2023-02-16T10:38:37.685Z,38.92
2023-02-16T10:40:53.800Z,38.72
2023-02-16T10:43:06.148Z,40.45
2023-02-16T10:45:25.240Z,40.63
2023-02-16T10:47:37.024Z,39.45
2023-02-16T10:49:42.037Z,38.90
2023-02-16T10:51:52.396Z,38.17
2023-02-16T10:54:03.973Z,40.35
2023-02-16T10:56:28.270Z,40.15
2023-02-16T10:58:43.071Z,39.65
2023-02-16T11:00:55.789Z,36.63
2023-02-16T11:03:05.206Z,38.00
2023-02-16T11:05:32.415Z,37.35
2023-02-16T11:07:37.236Z,40.75
2023-02-16T11:09:47.815Z,38.33
2023-02-16T11:11:52.762Z,39.40
2023-02-16T11:14:04.141Z,36.05
2023-02-16T11:16:17.380Z,36.72
2023-02-16T11:18:35.026Z,35.58
2023-02-16T11:20:56.713Z,38.40
2023-02-16T11:23:17.826Z,36.30
2023-02-16T11:25:28.323Z,35.47
2023-02-16T11:27:33.214Z,35.95
2023-02-16T11:29:38.336Z,35.53
2023-02-16T11:31:43.804Z,34.85
2023-02-16T11:34:01.216Z,35.22
2023-02-16T11:36:07.566Z,35.05
2023-02-16T11:38:31.193Z,33.90
2023-02-16T11:40:40.719Z,33.75
2023-02-16T11:42:50.005Z,33.80
2023-02-16T11:44:57.503Z,33.15
2023-02-16T11:47:05.902Z,32.20
2023-02-16T11:49:32.964Z,31.20
2023-02-16T11:51:42.016Z,32.65
2023-02-16T11:53:51.419Z,34.40
2023-02-16T11:56:20.749Z,32.97
2023-02-16T11:58:27.851Z,31.67
2023-02-16T12:00:37.392Z,32.33
2023-02-16T12:03:02.333Z,30.80
2023-02-16T12:05:22.670Z,32.65
2023-02-16T12:07:36.362Z,31.38
2023-02-16T12:09:52.590Z,30.33
2023-02-16T12:12:09.325Z,29.33
2023-02-16T12:14:25.148Z,30.15
2023-02-16T12:16:37.589Z,30.00
2023-02-16T12:19:02.139Z,29.63
2023-02-16T12:21:18.284Z,27.60
2023-02-16T12:23:39.602Z,28.15
2023-02-16T12:25:52.086Z,27.45
2023-02-16T12:28:09.690Z,26.70
2023-02-16T12:30:31.002Z,27.60
2023-02-16T12:33:03.677Z,26.77
2023-02-16T12:35:24.731Z,26.55
2023-02-16T12:37:37.326Z,25.15
2023-02-16T12:39:54.146Z,24.20
2023-02-16T12:42:16.985Z,25.85
2023-02-16T12:44:36.529Z,23.60
2023-02-16T12:46:50.502Z,21.40
2023-02-16T12:48:59.596Z,23.05
2023-02-16T12:51:07.114Z,20.52
2023-02-16T12:53:27.687Z,19.55
2023-02-16T12:55:40.213Z,20.25
2023-02-16T12:57:53.098Z,19.52
2023-02-16T13:00:09.237Z,17.98
2023-02-16T13:02:21.017Z,19.10
2023-02-16T13:04:39.466Z,20.35
2023-02-16T13:06:50.024Z,19.38
2023-02-16T13:09:03.615Z,20.63
2023-02-16T13:11:20.412Z,19.48
2023-02-16T13:13:29.478Z,19.90
2023-02-16T13:15:40.497Z,20.20
2023-02-16T13:17:51.820Z,19.85
2023-02-16T13:19:58.580Z,20.23
2023-02-16T13:22:34.075Z,21.73
2023-02-16T13:24:53.165Z,20.70
2023-02-16T13:27:22.302Z,20.13
2023-02-16T13:29:52.694Z,20.98
2023-02-16T13:32:22.852Z,20.23
2023-02-16T13:34:59.706Z,22.73
2023-02-16T13:37:23.590Z,21.85
2023-02-16T13:39:49.551Z,23.02
2023-02-16T13:42:28.529Z,22.02
2023-02-16T13:44:44.848Z,22.23
2023-02-16T13:46:54.138Z,22.17
2023-02-16T13:49:03.748Z,20.73
2023-02-16T13:51:15.841Z,22.13
2023-02-16T13:53:23.648Z,24.00
2023-02-16T13:55:32.861Z,24.00
2023-02-16T13:58:06.577Z,21.65
2023-02-16T14:02:57.592Z,23.83
2023-02-16T14:05:13.997Z,21.17
2023-02-16T14:07:36.235Z,21.77
2023-02-16T14:09:53.444Z,21.77
2023-02-16T14:12:07.712Z,21.90
2023-02-16T14:14:31.852Z,23.08
2023-02-16T14:16:37.253Z,21.65
2023-02-16T14:18:51.164Z,22.25
2023-02-16T14:21:09.177Z,21.90
2023-02-16T14:23:34.621Z,21.08
2023-02-16T14:25:43.345Z,22.15
2023-02-16T14:27:52.652Z,21.90
2023-02-16T14:30:02.707Z,19.75
2023-02-16T14:32:23.791Z,21.23
2023-02-16T14:34:32.740Z,20.77
2023-02-16T14:37:16.122Z,21.58
2023-02-16T14:39:23.545Z,19.40
2023-02-16T14:41:32.988Z,19.23
2023-02-16T14:43:47.258Z,20.15
2023-02-16T14:46:17.267Z,20.35
2023-02-16T14:48:33.933Z,20.60
2023-02-16T14:50:55.583Z,20.25
2023-02-16T14:53:25.913Z,19.42
2023-02-16T14:56:06.843Z,19.63
2023-02-16T14:58:28.494Z,19.60
2023-02-16T15:00:39.446Z,19.10
2023-02-16T15:02:56.871Z,20.30
2023-02-16T15:05:19.647Z,18.30
2023-02-16T15:07:26.783Z,18.65
2023-02-16T15:09:36.997Z,19.20
2023-02-16T15:11:58.710Z,19.92
2023-02-16T15:14:15.421Z,20.80
2023-02-16T15:16:20.912Z,20.17
2023-02-16T15:18:30.441Z,21.10
2023-02-16T15:20:48.698Z,21.48
2023-02-16T15:22:55.436Z,20.58
2023-02-16T15:25:08.520Z,22.70
2023-02-16T15:29:30.306Z,21.88
2023-02-16T15:31:37.201Z,23.27
2023-02-16T15:33:45.428Z,24.65
2023-02-16T15:35:57.012Z,24.50
2023-02-16T15:38:11.598Z,22.80
2023-02-16T15:40:30.102Z,22.45
2023-02-16T15:42:36.635Z,24.00
2023-02-16T15:44:44.416Z,24.88
2023-02-16T15:46:52.770Z,24.95
2023-02-16T15:48:57.738Z,23.40
2023-02-16T15:51:13.984Z,24.75
2023-02-16T15:53:27.457Z,22.20
2023-02-16T15:55:36.500Z,23.88
2023-02-16T15:57:43.608Z,24.60
2023-02-16T15:59:51.715Z,24.02
2023-02-16T16:02:00.921Z,22.17
2023-02-16T16:04:18.036Z,24.77
2023-02-16T16:06:23.258Z,25.55
2023-02-16T16:08:30.668Z,26.60
2023-02-16T16:10:42.788Z,24.60
2023-02-16T16:12:49.703Z,26.42
2023-02-16T16:14:57.746Z,27.30
2023-02-16T16:17:03.394Z,25.85
2023-02-16T16:19:18.377Z,28.33
2023-02-16T16:21:29.335Z,27.27
2023-02-16T16:23:36.561Z,27.58
2023-02-16T16:25:47.076Z,27.73
2023-02-16T16:27:52.395Z,28.00
2023-02-16T16:30:16.540Z,27.38
2023-02-16T16:32:25.138Z,30.23
2023-02-16T16:34:43.722Z,32.75
2023-02-16T16:36:59.519Z,32.97
2023-02-16T16:39:23.941Z,30.67
2023-02-16T16:41:32.330Z,30.60
2023-02-16T16:43:57.817Z,30.10
2023-02-16T16:46:18.174Z,31.33
2023-02-16T16:48:28.795Z,30.77
2023-02-16T16:50:39.261Z,31.52
2023-02-16T16:52:50.246Z,30.35
2023-02-16T16:54:55.748Z,28.52
2023-02-16T16:57:03.555Z,26.73
2023-02-16T16:59:11.809Z,29.95
2023-02-16T17:01:17.308Z,28.20
2023-02-16T17:03:22.742Z,30.83
2023-02-16T17:05:30.710Z,30.80
2023-02-16T17:07:36.397Z,31.33
2023-02-16T17:09:41.767Z,30.58
2023-02-16T17:11:49.336Z,30.67
2023-02-16T17:14:11.364Z,29.73
2023-02-16T17:16:26.688Z,27.55
2023-02-16T17:18:32.735Z,27.00
2023-02-16T17:20:38.997Z,28.98
2023-02-16T17:22:47.144Z,27.98
2023-02-16T17:24:52.020Z,30.55
2023-02-16T17:26:57.581Z,30.00
2023-02-16T17:29:05.318Z,30.15
2023-02-16T17:31:13.047Z,28.33
2023-02-16T17:33:18.071Z,30.63
2023-02-16T17:35:23.283Z,30.20
2023-02-16T17:37:30.562Z,28.73
2023-02-16T17:39:40.932Z,26.65
2023-02-16T17:41:51.542Z,28.90
2023-02-16T17:43:56.976Z,24.83
2023-02-16T17:46:07.714Z,29.60
2023-02-16T17:48:19.370Z,27.13
2023-02-16T17:50:24.716Z,29.75
2023-02-16T17:52:31.293Z,27.23
2023-02-16T17:54:45.391Z,31.23
2023-02-16T17:56:51.510Z,29.95
2023-02-16T17:58:59.844Z,27.73
2023-02-16T18:01:08.250Z,26.48
2023-02-16T18:03:16.050Z,26.88
2023-02-16T18:05:24.431Z,29.05
2023-02-16T18:07:29.801Z,26.10
2023-02-16T18:09:39.294Z,29.85
2023-02-16T18:11:44.327Z,32.42
2023-02-16T18:13:49.600Z,27.90
2023-02-16T18:15:58.932Z,28.20
2023-02-16T18:18:06.911Z,28.63
2023-02-16T18:20:16.335Z,27.33
2023-02-16T18:22:24.396Z,28.88
2023-02-16T18:24:29.723Z,29.45
2023-02-16T18:26:34.634Z,30.30
2023-02-16T18:28:42.913Z,27.15
2023-02-16T18:30:51.957Z,24.38
2023-02-16T18:32:59.374Z,24.83
2023-02-16T18:35:08.461Z,23.50
2023-02-16T18:37:13.336Z,23.42
2023-02-16T18:39:21.965Z,24.30
2023-02-16T18:41:27.205Z,22.42
2023-02-16T18:43:38.352Z,22.38
2023-02-16T18:45:47.568Z,24.00
2023-02-16T18:47:53.753Z,25.80
2023-02-16T18:49:58.973Z,24.65
2023-02-16T18:52:07.086Z,22.77
2023-02-16T18:54:12.026Z,24.00
2023-02-16T18:56:18.193Z,18.35
2023-02-16T18:58:25.940Z,17.70
2023-02-16T19:00:31.272Z,18.23
2023-02-16T19:02:39.145Z,15.68
2023-02-16T19:04:44.033Z,14.70
2023-02-16T19:06:53.342Z,13.30
2023-02-16T19:09:01.364Z,13.55
2023-02-16T19:11:06.636Z,13.25
2023-02-16T19:13:23.815Z,15.25
2023-02-16T19:15:30.454Z,12.70
2023-02-16T19:17:36.547Z,11.95
2023-02-16T19:19:43.052Z,12.05
2023-02-16T19:21:48.273Z,12.85
2023-02-16T19:23:59.396Z,12.35
2023-02-16T19:26:17.283Z,12.25
2023-02-16T19:28:23.490Z,12.43
2023-02-16T19:30:30.488Z,12.82
2023-02-16T19:32:36.746Z,13.40
2023-02-16T19:34:44.662Z,13.43
2023-02-16T19:36:53.970Z,13.63
2023-02-16T19:39:02.405Z,14.35
2023-02-16T19:41:18.386Z,14.90
2023-02-16T19:43:26.723Z,12.23
2023-02-16T19:45:35.030Z,13.57
2023-02-16T19:47:44.324Z,13.45
2023-02-16T19:49:51.239Z,13.35
2023-02-16T19:51:56.865Z,16.20
2023-02-16T19:54:08.519Z,15.13
2023-02-16T19:56:19.488Z,15.25
2023-02-16T19:58:29.547Z,14.27
2023-02-16T20:00:37.107Z,14.43
2023-02-16T20:02:42.492Z,14.07
2023-02-16T20:04:48.144Z,14.02
2023-02-16T20:06:56.660Z,13.07
2023-02-16T20:09:07.913Z,13.70
2023-02-16T20:11:15.812Z,13.65
2023-02-16T20:13:21.160Z,13.25
2023-02-16T20:15:29.826Z,10.88
2023-02-16T20:17:40.325Z,12.93
2023-02-16T20:19:46.544Z,13.68
2023-02-16T20:21:52.265Z,14.68
2023-02-16T20:24:02.597Z,12.73
2023-02-16T20:26:10.509Z,13.68
2023-02-16T20:28:26.818Z,15.23
2023-02-16T20:30:32.237Z,14.40
2023-02-16T20:32:40.811Z,15.80
2023-02-16T20:35:01.972Z,15.20
2023-02-16T20:37:10.178Z,13.57
2023-02-16T20:39:15.572Z,12.75
2023-02-16T20:41:32.035Z,13.15
2023-02-16T20:43:50.986Z,12.13
2023-02-16T20:45:56.740Z,10.98
2023-02-16T20:48:10.088Z,12.15
2023-02-16T20:50:21.672Z,10.10
2023-02-16T20:52:27.907Z,11.02
2023-02-16T20:54:39.334Z,10.10
2023-02-16T20:56:46.562Z,12.43
2023-02-16T20:59:16.276Z,12.55
2023-02-16T21:01:32.316Z,14.70
2023-02-16T21:03:57.252Z,13.55
2023-02-16T21:06:19.391Z,16.30
2023-02-16T21:08:33.346Z,15.63
2023-02-16T21:10:46.305Z,13.48
2023-02-16T21:49:50.957Z,7.18
2023-02-16T21:54:57.220Z,9.80
2023-02-16T21:57:06.234Z,10.80
2023-02-16T21:59:20.031Z,10.68
2023-02-16T22:01:26.552Z,10.00
2023-02-16T22:03:33.423Z,10.98
2023-02-16T22:16:04.621Z,9.43
2023-02-16T22:18:12.764Z,9.80
2023-02-16T22:20:21.265Z,11.25
2023-02-16T22:22:36.415Z,11.20
2023-02-16T22:24:47.947Z,11.18
2023-02-16T22:26:53.614Z,11.07
2023-02-16T22:29:05.139Z,11.48
2023-02-16T22:31:16.055Z,10.20
2023-02-16T22:33:33.997Z,10.27
2023-02-16T22:35:40.720Z,9.50
2023-02-16T22:37:45.958Z,9.90
2023-02-16T22:40:01.763Z,9.52
2023-02-16T22:42:09.903Z,10.43
2023-02-16T22:44:20.378Z,9.63
2023-02-16T22:46:28.069Z,10.23
2023-02-16T22:48:38.493Z,10.30
2023-02-16T22:50:46.834Z,11.18
2023-02-16T22:53:05.330Z,9.98
2023-02-16T22:55:15.997Z,10.43
2023-02-16T22:57:22.805Z,10.55
2023-02-16T22:59:56.000Z,11.13
2023-02-16T23:13:09.571Z,9.93
2023-02-16T23:15:32.214Z,10.43
2023-02-16T23:17:51.376Z,10.70
2023-02-16T23:20:22.383Z,10.27
2023-02-16T23:22:34.635Z,9.15
2023-02-16T23:25:12.940Z,10.32
2023-02-16T23:30:25.018Z,10.07
2023-02-16T23:33:16.071Z,11.07
2023-02-16T23:37:45.001Z,11.00
2023-02-16T23:39:55.006Z,12.00
2023-02-16T23:42:19.678Z,10.85
2023-02-16T23:44:35.643Z,11.07
2023-02-16T23:46:47.455Z,11.52
2023-02-16T23:49:55.431Z,10.60
2023-02-16T23:52:54.608Z,12.77
2023-02-16T23:58:06.831Z,10.73
